Allen, Texas
Current Conditions -  °F | °C
As of 11:53 AM on Friday 31 Oct 2014 (Local Time) from KTKI Reporting Station
Clear Clear  
Wind Chill: 63°   Ceiling: Unl
Heat Index: 63°   Visibility: 10mi
Dew Point: 42°   Wind: 14mph
Humidity: 46%   Direction: 10°N
Pressure: 30.34"   Gusts: 23mph
Location:  33.1°N, 96.67°W
Report Text: KTKI 311653Z 01012G20KT 10SM CLR 17/06 A3034 RMK AO2 SLP276 T01720056
Loading
Personal Weather Stations






























Interactive Weather Map
Tropical Storm Tracking
New forecast layout! Learn more

10-Day Weather Forecast

Advertisements
Track Severe Weather on mobile